.
WxDataArchive / Data Records for 2013-05-31
2013-05-30 May 2013 2013-06-01

Data Records for Friday, 31 May 2013

Time	Temp	Chill	HIndex	Humid	Dewpt	 Wind 	HiWind	WindDir	Rain 	Barom 
-----	----	-----	------	-----	-----	------	------	-------	-----	----- 
00:00	68.4	68.4	68.4	92	66.0	0	0	---	0.00	29.960 
00:05	68.4	68.4	68.4	92	66.0	0	0	---	0.00	29.960 
00:10	68.4	68.4	68.4	92	66.0	0	0	---	0.00	29.960 
00:15	68.4	68.4	68.4	92	66.0	0	0	---	0.00	29.960 
00:20	68.8	68.8	68.8	92	66.4	0	2	90	0.00	29.960 
00:25	69.3	69.3	69.3	92	66.9	0	1	90	0.00	29.960 
00:30	69.8	69.8	69.8	90	66.7	0	2	90	0.00	29.955 
00:35	70.1	70.1	70.1	89	66.7	0	1	90	0.00	29.955 
00:40	70.6	70.6	70.6	88	66.9	0	1	90	0.00	29.955 
00:45	70.8	70.8	70.8	87	66.7	0	1	90	0.00	29.956 
00:50	70.9	70.9	70.9	86	66.5	0	1	90	0.00	29.956 
00:55	71.3	71.3	71.3	85	66.5	0	1	90	0.00	29.956 
01:00	71.5	71.5	71.5	84	66.4	0	1	90	0.00	29.958 
01:05	71.8	71.8	71.8	84	66.7	0	1	90	0.00	29.958 
01:10	72.0	72.0	72.0	83	66.5	0	1	90	0.00	29.958 
01:15	72.1	72.1	72.1	82	66.3	0	2	90	0.00	29.960 
01:20	72.5	72.5	72.5	81	66.3	0	2	90	0.00	29.960 
01:25	72.7	72.7	72.7	81	66.5	0	1	90	0.00	29.960 
01:30	72.8	72.8	72.8	80	66.3	0	1	90	0.00	29.955 
01:35	73.0	73.0	73.0	79	66.1	0	2	90	0.00	29.955 
01:40	73.2	73.2	73.2	79	66.3	0	1	90	0.00	29.955 
01:45	73.3	73.3	73.3	78	66.0	0	2	90	0.00	29.948 
01:50	73.5	73.5	73.5	78	66.2	0	1	90	0.00	29.948 
01:55	73.5	73.5	73.5	78	66.2	0	2	90	0.00	29.948 
02:00	73.5	73.5	73.5	78	66.2	0	1	90	0.00	29.950 
02:05	73.5	73.5	73.5	78	66.2	0	2	90	0.00	29.950 
02:10	73.3	73.3	73.3	78	66.0	0	1	90	0.00	29.950 
02:15	73.3	73.3	73.3	78	66.0	0	3	90	0.00	29.944 
02:20	73.3	73.3	73.3	78	66.0	0	1	90	0.00	29.944 
02:25	73.3	73.3	73.3	78	66.0	0	2	90	0.00	29.944 
02:30	73.2	73.2	73.2	79	66.3	0	1	90	0.00	29.941 
02:35	73.2	73.2	73.2	79	66.3	0	1	90	0.00	29.941 
02:40	73.2	73.2	73.2	78	65.9	0	2	90	0.00	29.941 
02:45	73.2	73.2	73.2	78	65.9	1	3	90	0.00	29.935 
02:50	73.2	73.2	73.2	78	65.9	0	2	90	0.00	29.935 
02:55	73.2	73.2	73.2	78	65.9	0	1	90	0.00	29.935 
03:00	73.2	73.2	73.2	78	65.9	0	2	90	0.00	29.927 
03:05	73.2	73.2	73.2	78	65.9	1	6	90	0.00	29.927 
03:10	73.2	73.2	73.2	78	65.9	0	2	270	0.00	29.927 
03:15	73.0	73.0	73.0	78	65.7	0	1	270	0.00	29.925 
03:20	73.0	73.0	73.0	78	65.7	0	1	270	0.00	29.925 
03:25	72.8	72.8	72.8	78	65.5	0	3	270	0.00	29.925 
03:30	72.8	72.8	72.8	78	65.5	0	1	270	0.00	29.924 
03:35	72.8	72.8	72.8	78	65.5	0	1	270	0.00	29.924 
03:40	72.7	72.7	72.7	78	65.4	0	4	248	0.00	29.924 
03:45	72.7	72.7	72.7	78	65.4	0	1	248	0.00	29.924 
03:50	72.7	72.7	72.7	78	65.4	0	1	248	0.00	29.924 
03:55	72.7	72.7	72.7	78	65.4	0	2	248	0.00	29.924 
04:00	72.5	72.5	72.5	78	65.2	0	2	248	0.00	29.917 
04:05	72.5	72.5	72.5	78	65.2	0	0	---	0.00	29.917 
04:10	72.3	72.3	72.3	78	65.0	0	3	248	0.00	29.917 
04:15	72.3	72.3	72.3	78	65.0	0	2	248	0.00	29.919 
04:20	72.3	72.3	72.3	78	65.0	0	2	248	0.00	29.919 
04:25	72.3	72.3	72.3	78	65.0	0	2	248	0.00	29.919 
04:30	72.1	72.1	72.1	78	64.8	0	3	248	0.00	29.921 
04:35	72.1	72.1	72.1	78	64.8	0	2	248	0.00	29.921 
04:40	72.3	72.3	72.3	77	64.7	1	5	112	0.00	29.921 
04:45	72.3	72.3	72.3	77	64.7	0	2	112	0.00	29.922 
04:50	72.3	72.3	72.3	77	64.7	0	1	112	0.00	29.922 
04:55	72.1	72.1	72.1	77	64.5	0	1	112	0.00	29.922 
05:00	72.1	72.1	72.1	77	64.5	0	2	112	0.00	29.919 
05:05	72.1	72.1	72.1	77	64.5	0	3	112	0.00	29.919 
05:10	72.0	72.0	72.0	78	64.8	0	2	112	0.00	29.919 
05:15	72.0	72.0	72.0	78	64.8	0	1	112	0.00	29.914 
05:20	71.8	71.8	71.8	78	64.6	0	2	112	0.00	29.914 
05:25	71.6	71.6	71.6	78	64.4	0	1	112	0.00	29.914 
05:30	71.5	71.5	71.5	79	64.6	0	1	112	0.00	29.916 
05:35	71.5	71.5	71.5	79	64.6	0	1	112	0.00	29.916 
05:40	71.3	71.3	71.3	79	64.4	0	2	112	0.00	29.916 
05:45	71.3	71.3	71.3	79	64.4	0	1	112	0.00	29.913 
05:50	71.1	71.1	71.1	80	64.6	0	3	112	0.00	29.913 
05:55	71.1	71.1	71.1	80	64.6	0	1	112	0.00	29.913 
06:00	71.1	71.1	71.1	80	64.6	0	2	112	0.00	29.912 
06:05	71.1	71.1	71.1	80	64.6	0	2	112	0.00	29.912 
06:10	70.9	70.9	70.9	80	64.4	0	2	112	0.00	29.912 
06:15	70.9	70.9	70.9	80	64.4	1	5	112	0.00	29.912 
06:20	71.1	71.1	71.1	80	64.6	0	3	90	0.00	29.912 
06:25	71.1	71.1	71.1	80	64.6	1	3	68	0.00	29.912 
06:30	71.1	71.1	71.1	80	64.6	0	2	68	0.00	29.911 
06:35	71.3	71.3	71.3	79	64.4	1	2	68	0.00	29.911 
06:40	71.3	71.3	71.3	79	64.4	1	4	90	0.00	29.911 
06:45	71.5	71.5	71.5	79	64.6	0	2	90	0.00	29.913 
06:50	71.6	71.6	71.6	79	64.7	0	2	90	0.00	29.913 
06:55	71.6	71.6	71.6	79	64.7	1	4	112	0.00	29.913 
07:00	71.8	71.8	71.8	79	64.9	1	2	112	0.00	29.916 
07:05	72.0	72.0	72.0	78	64.8	0	3	135	0.00	29.916 
07:10	72.0	72.0	72.0	79	65.1	1	5	90	0.00	29.916 
07:15	72.0	72.0	72.0	78	64.8	1	4	90	0.00	29.922 
07:20	72.1	72.1	72.1	78	64.8	1	3	90	0.00	29.922 
07:25	72.1	72.1	72.1	78	64.8	1	4	90	0.00	29.922 
07:30	72.1	72.1	72.1	78	64.8	0	2	90	0.00	29.926 
07:35	72.3	72.3	72.3	78	65.0	0	3	90	0.00	29.926 
07:40	72.5	72.5	72.5	78	65.2	0	2	90	0.00	29.926 
07:45	72.7	72.7	72.7	78	65.4	0	2	90	0.00	29.928 
07:50	73.0	73.0	73.0	77	65.3	1	3	90	0.00	29.928 
07:55	73.0	73.0	73.0	77	65.3	0	3	22	0.00	29.928 
08:00	73.2	73.2	73.2	77	65.5	0	3	22	0.00	29.929 
08:05	73.3	73.3	73.3	77	65.6	0	2	22	0.00	29.929 
08:10	73.5	73.5	73.5	77	65.8	0	1	22	0.00	29.929 
08:15	73.5	73.5	73.5	77	65.8	0	3	270	0.00	29.936 
08:20	73.5	73.5	73.5	76	65.5	1	4	270	0.00	29.936 
08:25	73.7	73.7	73.7	76	65.6	1	3	270	0.00	29.936 
08:30	73.9	73.9	73.9	75	65.5	1	4	270	0.00	29.937 
08:35	74.0	74.0	74.0	74	65.2	1	4	248	0.00	29.937 
08:40	74.2	74.2	74.2	74	65.4	1	3	248	0.00	29.937 
08:45	74.4	74.4	74.4	73	65.2	1	3	270	0.00	29.935 
08:50	74.4	74.4	74.4	74	65.6	1	3	270	0.00	29.935 
08:55	74.4	74.4	74.4	72	64.8	0	3	270	0.00	29.935 
09:00	74.2	74.2	74.2	73	65.0	0	2	270	0.00	29.937 
09:05	73.9	73.9	73.9	73	64.7	1	2	270	0.00	29.937 
09:10	73.9	73.9	73.9	73	64.7	1	3	270	0.00	29.937 
09:15	73.7	73.7	73.7	72	64.1	1	2	270	0.00	29.949 
09:20	73.9	73.9	73.9	73	64.7	0	1	270	0.00	29.949 
09:25	73.9	73.9	73.9	72	64.3	1	3	270	0.00	29.949 
09:30	74.0	74.0	74.0	73	64.8	0	2	270	0.00	29.936 
09:35	74.4	74.4	74.4	72	64.8	0	1	270	0.00	29.936 
09:40	74.9	74.9	74.9	72	65.2	0	3	270	0.01	29.936 
09:45	75.6	75.6	77.2	70	65.1	1	2	270	0.00	29.934 
09:50	76.3	76.3	78.0	69	65.4	1	3	270	0.00	29.934 
09:55	76.0	76.0	77.7	68	64.7	1	4	270	0.00	29.934 
10:00	75.4	75.4	77.1	69	64.5	1	3	270	0.00	29.935 
10:05	75.1	75.1	76.8	70	64.6	1	4	270	0.00	29.935 
10:10	74.7	74.7	74.7	70	64.2	1	3	248	0.00	29.935 
10:15	74.4	74.4	74.4	70	64.0	1	4	248	0.00	29.944 
10:20	73.9	73.9	73.9	73	64.7	0	1	270	0.00	29.944 
10:25	73.5	73.5	73.5	76	65.5	0	2	270	0.00	29.944 
10:30	73.0	73.0	73.0	77	65.3	0	2	270	0.00	29.936 
10:35	72.7	72.7	72.7	79	65.8	1	4	270	0.01	29.936 
10:40	72.3	72.3	72.3	81	66.1	0	2	270	0.00	29.936 
10:45	72.0	72.0	72.0	83	66.5	0	1	270	0.01	29.937 
10:50	71.6	71.6	71.6	84	66.5	0	3	270	0.00	29.937 
10:55	71.3	71.3	71.3	85	66.5	0	2	270	0.00	29.937 
11:00	71.3	71.3	71.3	87	67.2	0	2	270	0.01	29.930 
11:05	71.3	71.3	71.3	87	67.2	0	3	270	0.00	29.930 
11:10	71.3	71.3	71.3	88	67.6	0	2	270	0.00	29.930 
11:15	71.3	71.3	71.3	88	67.6	0	3	270	0.00	29.933 
11:20	71.3	71.3	71.3	88	67.6	0	3	270	0.00	29.933 
11:25	71.3	71.3	71.3	88	67.6	0	1	270	0.00	29.933 
11:30	71.5	71.5	71.5	88	67.7	0	3	270	0.00	29.944 
11:35	71.5	71.5	71.5	88	67.7	0	5	270	0.00	29.944 
11:40	71.8	71.8	71.8	88	68.0	0	2	270	0.00	29.944 
11:45	72.0	72.0	72.0	88	68.2	0	3	270	0.00	29.951 
11:50	72.3	72.3	72.3	88	68.5	1	4	270	0.00	29.951 
11:55	72.3	72.3	72.3	87	68.2	1	4	248	0.00	29.951 
12:00	72.3	72.3	72.3	86	67.9	1	5	292	0.00	29.950 
12:05	72.3	72.3	72.3	86	67.9	1	3	270	0.00	29.950 
12:10	72.3	72.3	72.3	84	67.2	1	4	22	0.00	29.950 
12:15	72.3	72.3	72.3	83	66.8	2	5	248	0.00	29.942 
12:20	72.3	72.3	72.3	82	66.5	1	5	270	0.00	29.942 
12:25	72.5	72.5	72.5	81	66.3	0	4	248	0.00	29.942 
12:30	72.7	72.7	72.7	81	66.5	1	4	248	0.00	29.937 
12:35	72.7	72.7	72.7	80	66.2	1	3	248	0.00	29.937 
12:40	72.7	72.7	72.7	80	66.2	1	6	270	0.00	29.937 
12:45	73.0	73.0	73.0	80	66.5	1	5	68	0.00	29.945 
12:50	72.8	72.8	72.8	78	65.5	2	9	270	0.00	29.945 
12:55	72.8	72.8	72.8	77	65.2	3	7	270	0.00	29.945 
13:00	73.0	73.0	73.0	77	65.3	1	5	248	0.00	29.950 
13:05	73.2	73.2	73.2	78	65.9	1	4	248	0.00	29.950 
13:10	73.3	73.3	73.3	77	65.6	1	4	315	0.00	29.950 
13:15	73.3	73.3	73.3	77	65.6	1	7	248	0.00	29.949 
13:20	73.3	73.3	73.3	78	66.0	1	6	270	0.00	29.949 
13:25	73.2	73.2	73.2	78	65.9	1	5	270	0.00	29.949 
13:30	73.3	73.3	73.3	78	66.0	1	3	270	0.00	29.946 
13:35	73.5	73.5	73.5	78	66.2	1	4	270	0.00	29.946 
13:40	73.7	73.7	73.7	78	66.4	1	2	270	0.00	29.946 
13:45	73.7	73.7	73.7	79	66.8	0	3	270	0.00	29.940 
13:50	73.5	73.5	73.5	78	66.2	1	5	270	0.00	29.940 
13:55	73.3	73.3	73.3	79	66.4	1	4	45	0.00	29.940 
14:00	73.2	73.2	73.2	80	66.6	0	2	338	0.00	29.945 
14:05	73.2	73.2	73.2	80	66.6	0	2	270	0.00	29.945 
14:10	73.2	73.2	73.2	81	67.0	0	3	270	0.00	29.945 
14:15	73.0	73.0	73.0	80	66.5	2	6	270	0.00	29.936 
14:20	73.2	73.2	73.2	81	67.0	1	3	270	0.00	29.936 
14:25	72.8	72.8	72.8	81	66.6	1	3	270	0.00	29.936 
14:30	73.0	73.0	73.0	83	67.5	1	4	270	0.00	29.924 
14:35	73.0	73.0	73.0	83	67.5	0	3	338	0.00	29.924 
14:40	73.2	73.2	73.2	82	67.4	1	4	270	0.00	29.924 
14:45	73.2	73.2	73.2	81	67.0	1	4	270	0.00	29.915 
14:50	73.2	73.2	73.2	81	67.0	1	3	90	0.00	29.915 
14:55	73.0	73.0	73.0	80	66.5	1	4	248	0.00	29.915 
15:00	73.2	73.2	73.2	80	66.6	1	4	90	0.00	29.904 
15:05	73.2	73.2	73.2	79	66.3	1	4	270	0.00	29.904 
15:10	73.3	73.3	73.3	79	66.4	1	3	248	0.00	29.904 
15:15	73.3	73.3	73.3	79	66.4	1	4	315	0.00	29.902 
15:20	73.3	73.3	73.3	78	66.0	1	6	90	0.00	29.902 
15:25	73.3	73.3	73.3	79	66.4	1	6	0	0.00	29.902 
15:30	73.3	73.3	73.3	79	66.4	1	5	90	0.00	29.902 
15:35	73.5	73.5	73.5	79	66.6	1	3	248	0.00	29.902 
15:40	73.9	73.9	73.9	79	67.0	1	3	248	0.00	29.902 
15:45	74.2	74.2	74.2	78	66.9	1	3	248	0.00	29.899 
15:50	74.0	74.0	74.0	78	66.7	1	3	248	0.00	29.899 
15:55	73.9	73.9	73.9	78	66.6	1	2	248	0.00	29.899 
16:00	73.7	73.7	73.7	80	67.1	0	3	248	0.01	29.889 
16:05	73.0	73.0	73.0	81	66.8	0	2	248	0.02	29.889 
16:10	72.3	72.3	72.3	84	67.2	1	2	248	0.03	29.889 
16:15	70.9	70.9	70.9	85	66.2	2	7	248	0.19	29.894 
16:20	69.6	69.6	69.6	87	65.6	1	4	248	0.06	29.894 
16:25	68.8	68.8	68.8	88	65.1	1	4	270	0.08	29.894 
16:30	68.4	68.4	68.4	89	65.0	0	2	270	0.02	29.888 
16:35	68.4	68.4	68.4	91	65.7	1	3	270	0.00	29.888 
16:40	69.4	69.4	69.4	92	67.0	0	1	270	0.00	29.888 
16:45	69.9	69.9	69.9	92	67.5	0	2	270	0.00	29.878 
16:50	70.1	70.1	70.1	93	68.0	0	1	270	0.00	29.878 
16:55	70.4	70.4	70.4	93	68.3	0	2	270	0.00	29.878 
17:00	70.6	70.6	70.6	93	68.5	0	1	270	0.00	29.874 
17:05	70.8	70.8	70.8	93	68.7	0	1	270	0.00	29.874 
17:10	70.9	70.9	70.9	93	68.8	0	1	270	0.00	29.874 
17:15	70.8	70.8	70.8	93	68.7	0	1	270	0.00	29.873 
17:20	71.1	71.1	71.1	93	69.0	0	2	270	0.00	29.873 
17:25	71.5	71.5	71.5	93	69.4	0	2	270	0.00	29.873 
17:30	71.8	71.8	71.8	94	70.0	0	2	270	0.00	29.877 
17:35	71.8	71.8	71.8	93	69.7	1	4	270	0.00	29.877 
17:40	71.5	71.5	71.5	92	69.0	0	2	0	0.00	29.877 
17:45	71.8	71.8	71.8	92	69.3	0	2	0	0.00	29.875 
17:50	72.0	72.0	72.0	92	69.5	0	2	0	0.00	29.875 
17:55	71.8	71.8	71.8	91	69.0	0	1	0	0.00	29.875 
18:00	71.6	71.6	71.6	91	68.8	0	4	0	0.00	29.873 
18:05	71.6	71.6	71.6	90	68.5	1	5	270	0.00	29.873 
18:10	71.8	71.8	71.8	89	68.4	0	1	270	0.00	29.873 
18:15	72.0	72.0	72.0	89	68.6	0	1	270	0.00	29.868 
18:20	72.1	72.1	72.1	88	68.3	0	2	270	0.00	29.868 
18:25	72.3	72.3	72.3	87	68.2	0	3	270	0.00	29.868 
18:30	72.7	72.7	72.7	86	68.3	1	4	270	0.00	29.857 
18:35	72.8	72.8	72.8	85	68.0	0	2	270	0.00	29.857 
18:40	73.0	73.0	73.0	85	68.2	0	3	270	0.00	29.857 
18:45	73.0	73.0	73.0	84	67.9	0	2	270	0.00	29.861 
18:50	73.2	73.2	73.2	84	68.1	0	2	270	0.00	29.861 
18:55	73.0	73.0	73.0	83	67.5	0	2	270	0.00	29.861 
19:00	73.0	73.0	73.0	83	67.5	0	2	270	0.00	29.869 
19:05	73.0	73.0	73.0	82	67.2	0	4	315	0.00	29.869 
19:10	73.2	73.2	73.2	82	67.4	0	0	---	0.00	29.869 
19:15	73.2	73.2	73.2	82	67.4	0	0	---	0.00	29.858 
19:20	73.2	73.2	73.2	83	67.7	0	2	315	0.00	29.858 
19:25	73.2	73.2	73.2	82	67.4	0	2	315	0.00	29.858 
19:30	73.2	73.2	73.2	81	67.0	0	1	315	0.00	29.857 
19:35	73.2	73.2	73.2	81	67.0	0	1	315	0.00	29.857 
19:40	73.2	73.2	73.2	81	67.0	0	0	---	0.00	29.857 
19:45	73.2	73.2	73.2	81	67.0	0	0	---	0.00	29.849 
19:50	73.3	73.3	73.3	81	67.1	0	0	---	0.00	29.849 
19:55	73.3	73.3	73.3	81	67.1	0	0	---	0.00	29.849 
20:00	73.5	73.5	73.5	81	67.3	0	1	315	0.00	29.854 
20:05	73.5	73.5	73.5	81	67.3	0	0	---	0.00	29.854 
20:10	73.5	73.5	73.5	81	67.3	0	1	315	0.00	29.854 
20:15	73.5	73.5	73.5	81	67.3	0	0	---	0.00	29.851 
20:20	73.5	73.5	73.5	81	67.3	0	1	315	0.00	29.851 
20:25	73.5	73.5	73.5	81	67.3	0	1	315	0.00	29.851 
20:30	73.5	73.5	73.5	81	67.3	0	2	315	0.00	29.849 
20:35	73.3	73.3	73.3	81	67.1	0	1	315	0.00	29.849 
20:40	73.2	73.2	73.2	81	67.0	0	1	315	0.00	29.849 
20:45	73.2	73.2	73.2	82	67.4	0	3	112	0.00	29.840 
20:50	73.0	73.0	73.0	82	67.2	0	2	112	0.00	29.840 
20:55	73.0	73.0	73.0	82	67.2	0	3	112	0.00	29.840 
21:00	72.8	72.8	72.8	82	67.0	0	3	112	0.00	29.839 
21:05	72.8	72.8	72.8	82	67.0	0	3	112	0.00	29.839 
21:10	72.7	72.7	72.7	82	66.9	0	1	112	0.00	29.839 
21:15	72.5	72.5	72.5	83	67.0	0	1	112	0.00	29.849 
21:20	72.3	72.3	72.3	83	66.8	0	1	112	0.00	29.849 
21:25	72.3	72.3	72.3	83	66.8	0	0	---	0.00	29.849 
21:30	72.3	72.3	72.3	83	66.8	0	1	112	0.00	29.856 
21:35	72.3	72.3	72.3	84	67.2	0	3	112	0.00	29.856 
21:40	72.3	72.3	72.3	84	67.2	0	1	112	0.00	29.856 
21:45	72.3	72.3	72.3	84	67.2	0	3	112	0.00	29.856 
21:50	72.3	72.3	72.3	84	67.2	0	2	112	0.00	29.856 
21:55	72.3	72.3	72.3	84	67.2	0	2	112	0.00	29.856 
22:00	72.3	72.3	72.3	84	67.2	0	1	112	0.00	29.862 
22:05	72.3	72.3	72.3	84	67.2	0	2	112	0.00	29.862 
22:10	72.1	72.1	72.1	84	67.0	1	2	112	0.00	29.862 
22:15	72.1	72.1	72.1	84	67.0	1	3	112	0.00	29.857 
22:20	72.1	72.1	72.1	84	67.0	1	4	112	0.00	29.857 
22:25	72.0	72.0	72.0	84	66.9	1	3	90	0.00	29.857 
22:30	72.0	72.0	72.0	84	66.9	1	5	90	0.00	29.861 
22:35	72.0	72.0	72.0	84	66.9	1	5	90	0.00	29.861 
22:40	68.8	68.8	68.8	80	62.4	5	11	338	0.12	29.861 
22:45	65.5	65.5	65.5	85	60.9	4	10	315	0.07	29.925 
22:50	64.3	64.3	64.3	88	60.7	1	5	315	0.08	29.925 
22:55	63.9	63.9	63.9	89	60.6	0	1	292	0.05	29.925 
23:00	63.7	63.7	63.7	90	60.7	0	0	---	0.03	29.938 
23:05	63.7	63.7	63.7	91	61.0	0	0	---	0.02	29.938 
23:10	63.5	63.5	63.5	92	61.1	0	1	292	0.05	29.938 
23:15	63.5	63.5	63.5	92	61.1	0	0	---	0.04	29.946 
23:20	63.5	63.5	63.5	92	61.1	0	2	292	0.09	29.946 
23:25	63.5	63.5	63.5	92	61.1	0	1	292	0.04	29.946 
23:30	63.4	63.4	63.4	93	61.3	0	3	292	0.03	29.919 
23:35	63.2	63.2	63.2	93	61.1	1	4	292	0.03	29.919 
23:40	63.2	63.2	63.2	93	61.1	0	1	112	0.08	29.919 
23:45	63.1	63.1	63.1	94	61.3	0	1	112	0.09	29.919 
23:50	62.9	62.9	62.9	94	61.1	0	1	112	0.08	29.919 
23:55	62.9	62.9	62.9	94	61.1	0	1	112	0.06	29.919 

CoCoRaHS
IN-AL-39
A2 Web Hosting
Creative Commons License
GoDaddy
search engine by freefind advanced

loaded 2018-11-15 03:19:08 • last modified 2010-11-18 10:43:29
Privacy PolicyDisclaimer
• wx.awcolley.com is powered by PmWiki v.2002016 •
• all content (unless otherwise noted) © 2018 A W Colley